Terminal Aerodrome Forecast
Issued by NWS Newport/Morehead City, NC

Home | Current Version | Previous Version | Graphics & Text | Print | Product List | Glossary On
Versions: 1 2 3 4 5 6 7 8 9 10 11 12 13 14 15 16 17 18 19 20 21
000
FTUS42 KMHX 041136
TAFEWN
TAF
KEWN 041136Z 0412/0512 23014G21KT P6SM BKN007
     FM041400 22016G24KT P6SM FEW020 SCT040
     FM050100 20010KT 6SM BR SCT005=

USA.gov is the U.S. government's official web portal to all federal, state and local government web resources and services.